createdAt,value
2023-10-05T06:22:08.609Z,100692.91
2023-10-05T06:25:11.479Z,100693.94
2023-10-05T06:28:14.958Z,100701.13
2023-10-05T06:31:17.577Z,100712.66
2023-10-05T06:34:20.245Z,100716.19
2023-10-05T06:37:27.586Z,100713.16
2023-10-05T06:51:03.117Z,100703.44
2023-10-05T06:54:05.846Z,100711.47
2023-10-05T06:57:08.517Z,100705.94
2023-10-05T07:00:16.666Z,100719.50
2023-10-05T07:03:21.579Z,100716.28
2023-10-05T07:25:00.497Z,100731.09
2023-10-05T07:28:04.714Z,100728.16
2023-10-05T07:31:07.254Z,100734.88
2023-10-05T07:34:09.877Z,100736.63
2023-10-05T07:37:12.908Z,100740.78
2023-10-05T07:40:16.832Z,100738.78
2023-10-05T07:43:19.499Z,100750.31
2023-10-05T07:46:22.140Z,100751.59
2023-10-05T07:49:25.553Z,100764.34
2023-10-05T07:52:28.192Z,100762.75
2023-10-05T07:55:32.296Z,100771.84
2023-10-05T07:58:34.913Z,100773.91
2023-10-05T08:01:37.598Z,100773.16
2023-10-05T08:04:42.633Z,100776.94
2023-10-05T08:07:46.495Z,100778.03
2023-10-05T08:10:50.361Z,100769.53
2023-10-05T08:13:53.405Z,100761.66
2023-10-05T08:39:26.711Z,100783.69
2023-10-05T08:42:31.771Z,100780.75
2023-10-05T08:45:36.051Z,100774.69
2023-10-05T08:48:39.105Z,100769.28
2023-10-05T09:02:29.258Z,100740.31
2023-10-05T09:05:34.611Z,100743.03
2023-10-05T09:37:29.049Z,100598.91
2023-10-05T09:40:32.833Z,100587.97
2023-10-05T09:43:39.579Z,100574.13
2023-10-05T09:56:29.349Z,100553.53
2023-10-05T09:59:43.098Z,100560.16
2023-10-05T10:02:46.593Z,100565.91
2023-10-05T10:05:53.271Z,100558.06
2023-10-05T11:09:53.801Z,100448.94
2023-10-05T11:12:58.355Z,100449.19
2023-10-05T11:16:01.688Z,100443.25
2023-10-05T11:19:15.379Z,100453.03
2023-10-05T11:22:31.349Z,100439.22
2023-10-05T11:25:48.620Z,100461.97
2023-10-05T11:28:58.777Z,100493.44
2023-10-05T11:32:20.300Z,100504.88
2023-10-05T11:35:42.048Z,100506.88
2023-10-05T11:38:45.915Z,100511.88
2023-10-05T11:41:50.433Z,100541.13
2023-10-05T11:44:57.271Z,100563.38
2023-10-05T11:48:01.105Z,100537.63
2023-10-05T11:51:10.931Z,100580.06
2023-10-05T11:54:16.348Z,100616.19
2023-10-05T11:57:21.377Z,100648.50
2023-10-05T12:00:23.989Z,100668.03
2023-10-05T12:03:27.570Z,100656.06
2023-10-05T12:10:11.096Z,100698.00
2023-10-05T12:13:16.804Z,100748.53
2023-10-05T12:16:19.930Z,100786.69
2023-10-05T12:19:29.581Z,100790.97
2023-10-05T12:22:34.809Z,100772.28
2023-10-05T12:25:38.823Z,100754.00
2023-10-05T12:28:42.783Z,100753.69
2023-10-05T12:31:47.042Z,100751.78
2023-10-05T12:34:50.211Z,100738.47
2023-10-05T12:37:57.043Z,100737.03
2023-10-05T12:41:13.856Z,100734.38
2023-10-05T12:44:16.814Z,100749.81
2023-10-05T12:47:19.422Z,100748.97
2023-10-05T12:50:22.299Z,100752.78
2023-10-05T12:53:24.912Z,100783.22
2023-10-05T13:00:23.214Z,100884.66
2023-10-05T13:03:29.226Z,100918.25
2023-10-05T13:06:32.047Z,100937.41
2023-10-05T13:09:36.078Z,100946.44
2023-10-05T13:12:38.577Z,100947.06
2023-10-05T13:15:42.446Z,100942.28
2023-10-05T13:18:45.258Z,100947.06
2023-10-05T13:23:01.599Z,100936.19
2023-10-05T15:14:43.438Z,100982.69
2023-10-05T15:19:40.685Z,100986.34
2023-10-05T15:22:44.784Z,100988.66
2023-10-05T15:25:49.941Z,100984.91
2023-10-05T15:28:52.502Z,100991.09
